Time;durP1;ratioP1;P1;durP2;ratioP2;P2;SDS_P1;SDS_P2;PMS_P1;PMS_P2;Temp;Humidity;BMP_temperature;BMP_pressure;BME280_temperature;BME280_humidity;BME280_pressure;Samples;Min_cycle;Max_cycle;Signal;HPM_P1;HPM_P2
2022/06/18 00:01:35;;;;;;;31.63;29.80;;;17.00;99.90;;;;;;5031346;28;20217;-72
2022/06/18 00:04:10;;;;;;;39.20;37.10;;;16.90;99.90;;;;;;5030683;28;20657;-72
2022/06/18 00:06:52;;;;;;;46.50;44.00;;;16.80;99.90;;;;;;5030841;28;20182;-72
2022/06/18 00:09:21;;;;;;;43.07;40.83;;;16.80;99.90;;;;;;5030880;28;20187;-72
2022/06/18 00:14:33;;;;;;;42.97;40.57;;;16.80;99.90;;;;;;5030827;28;20179;-72
2022/06/18 00:16:59;;;;;;;39.40;37.17;;;16.80;99.90;;;;;;5028939;28;20175;-72
2022/06/18 00:19:25;;;;;;;41.50;39.37;;;16.70;99.90;;;;;;5030416;28;20186;-72
2022/06/18 00:21:51;;;;;;;40.93;38.67;;;16.70;99.90;;;;;;5030671;28;20182;-72
2022/06/18 00:24:19;;;;;;;34.93;33.10;;;16.60;99.90;;;;;;5029305;28;20257;-72
2022/06/18 00:26:46;;;;;;;29.03;27.53;;;16.70;99.90;;;;;;5029876;28;20285;-72
2022/06/18 00:29:14;;;;;;;31.63;29.90;;;16.70;99.90;;;;;;5030557;28;20265;-72
2022/06/18 00:31:40;;;;;;;32.47;30.73;;;16.60;99.90;;;;;;5030562;28;20245;-71
2022/06/18 00:34:06;;;;;;;29.57;28.07;;;16.50;99.90;;;;;;5030373;28;20289;-72
2022/06/18 00:36:32;;;;;;;38.30;36.10;;;16.50;99.90;;;;;;5029783;28;20265;-72
2022/06/18 00:38:58;;;;;;;52.40;49.53;;;16.50;99.90;;;;;;5030132;28;20183;-72
2022/06/18 00:41:25;;;;;;;57.43;54.43;;;16.50;99.90;;;;;;5029130;28;20206;-70
2022/06/18 00:44:00;;;;;;;51.50;48.83;;;16.60;99.90;;;;;;5030257;28;20218;-71
2022/06/18 00:46:59;;;;;;;38.93;36.63;;;16.60;99.90;;;;;;5029221;28;20221;-72
2022/06/18 00:49:47;;;;;;;59.07;55.87;;;16.50;99.90;;;;;;5029701;28;20191;-72
2022/06/18 00:52:23;;;;;;;63.03;59.73;;;16.50;99.90;;;;;;5030212;28;20179;-72
2022/06/18 00:54:57;;;;;;;57.80;54.63;;;16.50;99.90;;;;;;5029339;28;20198;-72
2022/06/18 00:57:33;;;;;;;56.63;53.73;;;16.40;99.90;;;;;;5030021;28;20321;-72
2022/06/18 01:00:05;;;;;;;61.23;58.17;;;16.40;99.90;;;;;;5030642;28;20183;-72
2022/06/18 01:02:35;;;;;;;50.30;47.37;;;16.30;99.90;;;;;;5034226;28;20214;-72
2022/06/18 01:05:01;;;;;;;53.90;51.20;;;16.20;99.90;;;;;;5032818;28;20210;-72
2022/06/18 01:07:36;;;;;;;56.40;53.50;;;16.10;99.90;;;;;;5033397;28;20179;-72
2022/06/18 01:10:06;;;;;;;53.43;50.47;;;16.10;99.90;;;;;;5033887;28;20178;-72
2022/06/18 01:12:32;;;;;;;46.67;44.10;;;16.10;99.90;;;;;;5034317;28;20256;-73
2022/06/18 01:15:04;;;;;;;26.93;25.17;;;16.10;99.90;;;;;;5034785;28;20654;-73
2022/06/18 01:17:32;;;;;;;25.57;24.17;;;16.10;99.90;;;;;;5034133;28;20237;-72
2022/06/18 01:20:00;;;;;;;16.97;16.00;;;16.10;99.90;;;;;;5033227;28;20183;-73
2022/06/18 01:22:39;;;;;;;24.87;23.33;;;16.10;99.90;;;;;;5034120;28;20232;-73
2022/06/18 01:25:07;;;;;;;16.70;15.70;;;16.10;99.90;;;;;;5033667;28;20217;-72
2022/06/18 01:27:35;;;;;;;22.30;21.03;;;16.10;99.90;;;;;;5033200;28;20184;-72
2022/06/18 01:30:09;;;;;;;24.73;23.40;;;16.10;99.90;;;;;;5032846;28;20214;-73
2022/06/18 01:32:35;;;;;;;19.90;18.70;;;16.00;99.90;;;;;;5033845;28;20268;-73
2022/06/18 01:35:04;;;;;;;19.07;17.77;;;15.90;99.90;;;;;;5033955;28;20178;-72
2022/06/18 01:37:31;;;;;;;14.87;14.07;;;15.90;99.90;;;;;;5031418;28;20587;-73
2022/06/18 01:39:57;;;;;;;16.10;15.10;;;15.80;99.90;;;;;;5033717;28;20179;-73
2022/06/18 01:42:27;;;;;;;24.07;22.53;;;15.80;99.90;;;;;;5032297;28;20215;-73
2022/06/18 01:45:11;;;;;;;30.67;28.73;;;15.70;99.90;;;;;;5033733;28;20234;-73
2022/06/18 01:47:45;;;;;;;50.80;48.03;;;15.70;99.90;;;;;;5032755;28;20185;-72
2022/06/18 01:50:22;;;;;;;44.97;42.53;;;15.80;99.90;;;;;;5033608;28;20179;-72
2022/06/18 01:53:05;;;;;;;58.53;55.43;;;15.60;99.90;;;;;;5032039;28;20278;-72
2022/06/18 01:55:36;;;;;;;51.77;48.90;;;15.60;99.90;;;;;;5033619;28;20213;-72
2022/06/18 01:58:08;;;;;;;52.57;49.80;;;15.50;99.90;;;;;;5032556;28;20186;-72
2022/06/18 02:00:35;;;;;;;51.17;48.17;;;15.50;99.90;;;;;;5032258;28;20217;-72
2022/06/18 02:03:02;;;;;;;59.20;55.90;;;15.50;99.90;;;;;;5033168;28;20211;-73
2022/06/18 02:05:29;;;;;;;61.87;58.63;;;15.50;99.90;;;;;;5033312;28;20298;-72
2022/06/18 02:07:55;;;;;;;52.83;50.13;;;15.40;99.90;;;;;;5032009;28;20202;-72
2022/06/18 02:10:35;;;;;;;49.93;47.23;;;15.40;99.90;;;;;;5033015;28;20678;-72
2022/06/18 02:13:03;;;;;;;30.57;28.77;;;15.30;99.90;;;;;;5033153;28;20683;-72
2022/06/18 02:15:37;;;;;;;20.87;19.53;;;15.10;99.90;;;;;;5032183;28;20194;-72
2022/06/18 02:18:07;;;;;;;30.67;29.00;;;15.10;99.90;;;;;;5032183;28;20186;-73
2022/06/18 02:20:40;;;;;;;54.13;51.00;;;15.20;99.90;;;;;;5033158;28;20182;-72
2022/06/18 02:23:06;;;;;;;45.13;42.60;;;15.30;99.90;;;;;;5013123;28;20207;-73
2022/06/18 02:25:32;;;;;;;46.93;44.50;;;15.30;99.90;;;;;;5012038;28;20207;-72
2022/06/18 02:28:02;;;;;;;49.77;46.90;;;15.30;99.90;;;;;;5010958;28;20183;-70
2022/06/18 02:30:34;;;;;;;24.33;22.93;;;15.20;99.90;;;;;;5013168;28;20657;-72
2022/06/18 02:33:22;;;;;;;33.30;31.60;;;15.20;99.90;;;;;;5011713;28;20684;-71
2022/06/18 02:35:49;;;;;;;37.10;34.93;;;15.20;99.90;;;;;;5021513;28;20222;-71
2022/06/18 02:38:18;;;;;;;42.47;40.03;;;15.20;99.90;;;;;;5031710;28;20652;-71
2022/06/18 02:40:44;;;;;;;38.57;36.47;;;15.20;99.90;;;;;;5031600;28;20223;-71
2022/06/18 02:43:11;;;;;;;38.77;36.47;;;15.20;99.90;;;;;;5032325;28;20328;-71
2022/06/18 02:45:38;;;;;;;32.27;30.53;;;15.20;99.90;;;;;;5031365;28;20215;-71
2022/06/18 02:48:04;;;;;;;24.23;22.67;;;15.10;99.90;;;;;;5031544;28;20284;-71
2022/06/18 02:50:35;;;;;;;16.73;15.63;;;15.10;99.90;;;;;;5026550;28;20290;-71
2022/06/18 02:53:04;;;;;;;32.03;30.07;;;15.10;99.90;;;;;;5030606;28;20195;-72
2022/06/18 02:55:38;;;;;;;25.67;23.93;;;15.10;99.90;;;;;;5032381;28;20182;-73
2022/06/18 02:58:14;;;;;;;18.57;17.63;;;15.00;99.90;;;;;;5031450;28;20179;-71
2022/06/18 03:00:42;;;;;;;34.87;32.77;;;15.00;99.90;;;;;;5030530;28;20257;-71
2022/06/18 03:03:10;;;;;;;27.23;25.63;;;15.10;99.90;;;;;;5031375;28;20243;-71
2022/06/18 03:05:36;;;;;;;20.83;19.53;;;15.00;99.90;;;;;;5031806;28;20214;-72
2022/06/18 03:08:03;;;;;;;21.83;20.60;;;15.00;99.90;;;;;;5030990;28;20171;-72
2022/06/18 03:13:13;;;;;;;34.47;32.53;;;14.90;99.90;;;;;;5031118;28;20222;-71
2022/06/18 03:15:40;;;;;;;39.97;37.83;;;14.90;99.90;;;;;;5031596;28;20655;-72
2022/06/18 03:18:06;;;;;;;49.17;46.37;;;14.90;99.90;;;;;;5029468;28;20274;-72
2022/06/18 03:20:48;;;;;;;45.00;42.57;;;14.80;99.90;;;;;;5031377;28;20634;-72
2022/06/18 03:23:17;;;;;;;58.97;56.03;;;14.80;99.90;;;;;;5030768;28;20619;-72
2022/06/18 03:25:43;;;;;;;49.47;46.90;;;14.80;99.90;;;;;;5031099;28;20210;-72
2022/06/18 03:28:13;;;;;;;44.37;41.77;;;14.80;99.90;;;;;;5030511;28;20175;-72
2022/06/18 03:30:41;;;;;;;57.23;54.17;;;14.70;99.90;;;;;;5031095;28;20178;-71
2022/06/18 03:33:08;;;;;;;57.57;54.43;;;14.70;99.90;;;;;;5030129;28;20234;-71
2022/06/18 03:35:34;;;;;;;59.10;55.53;;;14.80;99.90;;;;;;5031134;28;20218;-73
2022/06/18 03:38:01;;;;;;;41.23;39.13;;;14.90;99.90;;;;;;5029385;28;20190;-72
2022/06/18 03:40:27;;;;;;;48.53;45.90;;;14.90;99.90;;;;;;5029872;28;20236;-71
2022/06/18 03:42:53;;;;;;;47.17;44.67;;;14.90;99.90;;;;;;5029661;28;20314;-72
2022/06/18 03:45:19;;;;;;;38.17;36.17;;;14.90;99.90;;;;;;5030938;28;20755;-72
2022/06/18 03:47:46;;;;;;;32.87;30.87;;;15.00;99.90;;;;;;5030441;28;20267;-72
2022/06/18 03:50:18;;;;;;;26.13;24.70;;;15.00;99.90;;;;;;5029947;28;20198;-72
2022/06/18 03:52:45;;;;;;;31.33;29.57;;;15.00;99.90;;;;;;5030084;28;20616;-72
2022/06/18 03:55:15;;;;;;;26.40;24.93;;;15.10;99.90;;;;;;5031835;28;20190;-72
2022/06/18 03:57:41;;;;;;;36.70;34.77;;;15.10;99.90;;;;;;5030601;28;20682;-72
2022/06/18 04:00:13;;;;;;;53.97;51.13;;;15.10;99.90;;;;;;5030497;28;20651;-72
2022/06/18 04:02:38;;;;;;;72.20;68.50;;;15.10;99.90;;;;;;5030794;28;20202;-72
2022/06/18 04:05:04;;;;;;;105.10;99.63;;;15.10;99.90;;;;;;5031136;28;20207;-72
2022/06/18 04:07:30;;;;;;;141.83;134.50;;;15.10;99.90;;;;;;5029632;28;20175;-72
2022/06/18 04:10:01;;;;;;;188.33;178.90;;;15.20;99.90;;;;;;5030544;28;20171;-73
2022/06/18 04:12:28;;;;;;;132.83;125.90;;;15.20;99.90;;;;;;5030827;28;20614;-73
2022/06/18 04:14:54;;;;;;;94.43;89.47;;;15.20;99.90;;;;;;5029632;28;20179;-72
2022/06/18 04:17:21;;;;;;;42.77;40.50;;;15.20;99.90;;;;;;5029772;28;20210;-72
2022/06/18 04:19:47;;;;;;;30.67;28.67;;;15.20;99.90;;;;;;5030212;28;20651;-72
2022/06/18 04:22:13;;;;;;;22.13;20.57;;;15.20;99.90;;;;;;5030438;28;20203;-72
2022/06/18 04:24:39;;;;;;;16.13;15.03;;;15.30;99.90;;;;;;5029448;28;20692;-73
2022/06/18 04:27:05;;;;;;;12.77;11.93;;;15.40;99.90;;;;;;5029934;28;20971;-72
2022/06/18 04:29:32;;;;;;;13.47;12.57;;;15.50;99.90;;;;;;5030238;28;20190;-72
2022/06/18 04:31:59;;;;;;;10.87;10.07;;;15.70;99.90;;;;;;5029943;28;20229;-73
2022/06/18 04:34:26;;;;;;;7.93;7.23;;;15.80;99.90;;;;;;5031363;28;20228;-72
2022/06/18 04:36:52;;;;;;;12.10;11.10;;;15.90;99.90;;;;;;5034092;28;20555;-73
2022/06/18 04:39:18;;;;;;;34.33;32.57;;;16.00;99.90;;;;;;5030478;28;20206;-73
2022/06/18 04:41:44;;;;;;;33.27;31.50;;;16.10;99.90;;;;;;5022381;28;20223;-73
2022/06/18 04:44:11;;;;;;;46.63;44.10;;;16.30;99.90;;;;;;5026019;23;20320;-73
2022/06/18 04:46:37;;;;;;;9.83;9.17;;;16.50;99.90;;;;;;5056320;28;20724;-72
2022/06/18 04:49:03;;;;;;;12.63;11.80;;;16.60;99.90;;;;;;5053358;28;20178;-71
2022/06/18 04:51:29;;;;;;;11.47;10.47;;;16.70;99.90;;;;;;5052516;28;20685;-72
2022/06/18 04:53:55;;;;;;;11.63;10.93;;;16.80;99.90;;;;;;5050092;28;20223;-73
2022/06/18 04:56:21;;;;;;;15.53;14.53;;;16.90;99.90;;;;;;5034216;28;20234;-71
2022/06/18 04:58:47;;;;;;;12.37;11.70;;;17.10;99.90;;;;;;5032498;28;20245;-72
2022/06/18 05:01:19;;;;;;;48.33;45.80;;;17.30;99.90;;;;;;5020450;28;20188;-72
2022/06/18 05:03:45;;;;;;;50.47;47.87;;;17.50;99.90;;;;;;5013503;28;20282;-72
2022/06/18 05:06:11;;;;;;;20.23;19.00;;;17.80;99.90;;;;;;5014314;28;20743;-72
2022/06/18 05:08:36;;;;;;;9.85;9.25;;;18.10;99.90;;;;;;5012678;28;20558;-72
2022/06/18 05:11:03;;;;;;;12.57;11.77;;;18.40;99.90;;;;;;5024676;28;20708;-72
2022/06/18 05:13:29;;;;;;;9.93;9.13;;;18.80;99.90;;;;;;5033913;28;20560;-72
2022/06/18 05:15:56;;;;;;;77.72;73.88;;;19.30;99.90;;;;;;5032650;28;20282;-72
2022/06/18 05:18:24;;;;;;;40.20;37.72;;;19.70;99.90;;;;;;5032631;28;20274;-71
2022/06/18 05:20:51;;;;;;;10.00;9.40;;;20.10;99.90;;;;;;5030265;28;20179;-71
2022/06/18 05:23:18;;;;;;;22.95;21.75;;;20.40;99.90;;;;;;5032945;28;20282;-71
2022/06/18 05:25:45;;;;;;;20.10;19.05;;;20.60;99.90;;;;;;5024333;28;20708;-71
2022/06/18 05:28:13;;;;;;;10.05;9.48;;;20.90;99.90;;;;;;5029640;28;20233;-71
2022/06/18 05:30:39;;;;;;;6.50;6.00;;;21.10;99.90;;;;;;5025411;28;20186;-71
2022/06/18 05:33:06;;;;;;;7.60;7.10;;;21.20;99.90;;;;;;5033787;28;20183;-71
2022/06/18 05:35:35;;;;;;;7.53;7.03;;;21.30;99.90;;;;;;5033880;28;20678;-71
2022/06/18 05:38:01;;;;;;;5.85;5.55;;;21.40;99.90;;;;;;5032022;28;20182;-71
2022/06/18 05:40:27;;;;;;;7.60;7.00;;;21.60;99.90;;;;;;5032310;28;20270;-71
2022/06/18 05:42:54;;;;;;;18.92;17.83;;;21.90;99.90;;;;;;5033367;28;20763;-71
2022/06/18 05:45:22;;;;;;;28.70;27.33;;;22.50;99.90;;;;;;5030600;28;20211;-71
2022/06/18 05:47:48;;;;;;;18.67;17.75;;;22.80;99.90;;;;;;5032589;28;20266;-71
2022/06/18 05:50:17;;;;;;;19.80;18.65;;;23.20;99.90;;;;;;5033357;28;20313;-71
2022/06/18 05:52:44;;;;;;;23.67;22.50;;;23.50;99.90;;;;;;5027314;28;20213;-71
2022/06/18 05:55:10;;;;;;;16.63;15.63;;;23.50;99.90;;;;;;5013383;28;20208;-71
2022/06/18 05:57:46;;;;;;;15.57;14.70;;;23.70;99.90;;;;;;5012582;28;20194;-71
2022/06/18 06:00:15;;;;;;;15.77;14.88;;;24.00;99.90;;;;;;5014535;28;20186;-71
2022/06/18 06:02:40;;;;;;;24.60;23.42;;;24.50;99.90;;;;;;5012222;28;20274;-72
2022/06/18 06:05:07;;;;;;;46.38;44.08;;;24.90;99.90;;;;;;5017427;28;20306;-72
2022/06/18 06:07:32;;;;;;;42.35;39.97;;;25.30;99.90;;;;;;5027914;28;20643;-73
2022/06/18 06:12:43;;;;;;;7.95;7.55;;;26.00;97.30;;;;;;5032961;28;20175;-71
2022/06/18 06:15:10;;;;;;;7.22;6.88;;;26.30;95.40;;;;;;5031998;28;20334;-72
2022/06/18 06:17:36;;;;;;;5.50;5.20;;;26.50;95.20;;;;;;5018611;28;20184;-72
2022/06/18 06:20:15;;;;;;;7.00;6.50;;;26.60;94.20;;;;;;5011624;28;20388;-72
2022/06/18 06:22:40;;;;;;;8.82;6.10;;;26.70;94.60;;;;;;5011323;28;20604;-72
2022/06/18 06:25:06;;;;;;;5.03;4.50;;;27.00;95.00;;;;;;5012547;28;20220;-72
2022/06/18 06:27:32;;;;;;;4.53;4.22;;;27.30;93.90;;;;;;5023162;28;20659;-72
2022/06/18 06:29:58;;;;;;;4.90;4.43;;;27.40;93.60;;;;;;5029841;28;20181;-71
2022/06/18 06:32:24;;;;;;;4.38;4.18;;;27.50;92.80;;;;;;5024724;28;20870;-71
2022/06/18 06:34:50;;;;;;;5.88;4.88;;;27.60;91.80;;;;;;5034417;28;20202;-71
2022/06/18 06:37:15;;;;;;;5.00;4.65;;;27.90;92.00;;;;;;5015337;28;20711;-71
2022/06/18 06:39:41;;;;;;;5.10;4.72;;;28.10;91.20;;;;;;5012529;28;20176;-71
2022/06/18 06:42:09;;;;;;;5.53;5.22;;;28.20;89.80;;;;;;5012165;28;20221;-72
2022/06/18 06:44:35;;;;;;;8.93;8.23;;;28.20;90.60;;;;;;5011699;28;20880;-72
2022/06/18 06:47:01;;;;;;;8.80;8.30;;;28.60;87.80;;;;;;5010484;28;20280;-69
2022/06/18 06:49:26;;;;;;;7.20;6.72;;;28.40;85.10;;;;;;5014769;28;20176;-76
2022/06/18 06:51:53;;;;;;;4.95;4.40;;;27.80;86.20;;;;;;5021496;28;20194;-77
2022/06/18 06:54:19;;;;;;;6.60;4.72;;;27.40;87.30;;;;;;5035683;28;20195;-77
2022/06/18 06:59:29;;;;;;;4.93;4.53;;;27.80;88.30;;;;;;5034644;28;20643;-77
2022/06/18 07:01:55;;;;;;;6.00;5.50;;;28.00;86.90;;;;;;5028795;28;20198;-78
2022/06/18 07:04:22;;;;;;;7.47;6.88;;;28.40;83.80;;;;;;5029335;28;20196;-76
2022/06/18 07:06:48;;;;;;;6.97;6.68;;;28.90;82.90;;;;;;5023820;28;20560;-76
2022/06/18 07:09:14;;;;;;;6.85;6.40;;;28.90;79.60;;;;;;5027336;28;20176;-77
2022/06/18 07:11:39;;;;;;;7.00;6.60;;;28.90;79.30;;;;;;5031025;28;20171;-77
2022/06/18 07:14:06;;;;;;;7.90;7.38;;;28.80;79.00;;;;;;5034036;28;20686;-77
2022/06/18 07:16:32;;;;;;;14.18;13.18;;;29.00;79.40;;;;;;5035309;28;20282;-77
2022/06/18 07:18:58;;;;;;;12.30;11.43;;;29.60;78.90;;;;;;5034103;28;20611;-77
2022/06/18 07:21:24;;;;;;;14.13;13.32;;;30.30;76.20;;;;;;5021368;28;20179;-77
2022/06/18 07:23:51;;;;;;;33.70;31.92;;;30.70;74.00;;;;;;5016169;28;20217;-78
2022/06/18 07:26:21;;;;;;;59.22;56.30;;;31.10;73.30;;;;;;5016299;28;20210;-77
2022/06/18 07:28:47;;;;;;;73.75;70.30;;;31.20;69.10;;;;;;5016302;28;20204;-78
2022/06/18 07:31:18;;;;;;;100.70;95.85;;;31.40;66.70;;;;;;5020066;28;20262;-78
2022/06/18 07:33:45;;;;;;;109.00;103.63;;;31.40;65.80;;;;;;5015728;28;20175;-78
2022/06/18 07:36:11;;;;;;;100.63;95.70;;;31.20;66.30;;;;;;5016590;28;20186;-78
2022/06/18 07:38:36;;;;;;;96.15;91.60;;;31.40;67.10;;;;;;5018945;28;20266;-77
2022/06/18 07:41:04;;;;;;;100.13;95.03;;;31.20;66.40;;;;;;5029764;28;20246;-76
2022/06/18 07:43:40;;;;;;;84.30;80.30;;;31.50;67.20;;;;;;5028619;28;20664;-77
2022/06/18 07:46:08;;;;;;;97.15;92.45;;;31.90;65.00;;;;;;5026063;28;20221;-78
2022/06/18 07:48:35;;;;;;;95.15;90.65;;;31.80;65.10;;;;;;5020426;28;20213;-78
2022/06/18 07:51:01;;;;;;;69.82;66.32;;;31.90;64.00;;;;;;5026095;28;20213;-78
2022/06/18 07:53:27;;;;;;;60.03;56.75;;;31.90;62.40;;;;;;5025627;28;20520;-77
2022/06/18 07:55:57;;;;;;;50.08;47.47;;;31.70;62.20;;;;;;5013058;28;20218;-77
2022/06/18 07:58:24;;;;;;;60.55;57.30;;;31.70;60.80;;;;;;5019906;28;20186;-77
2022/06/18 08:00:49;;;;;;;55.33;52.63;;;31.90;61.50;;;;;;5029782;28;20215;-77
2022/06/18 08:03:17;;;;;;;66.63;63.30;;;32.30;59.80;;;;;;5022339;28;20269;-77
2022/06/18 08:05:43;;;;;;;75.85;72.28;;;32.50;59.00;;;;;;5010912;28;20211;-77
2022/06/18 08:08:09;;;;;;;136.73;130.00;;;32.70;59.30;;;;;;5010754;28;20192;-77
2022/06/18 08:10:37;;;;;;;156.30;148.93;;;32.70;58.30;;;;;;5016406;28;20186;-77
2022/06/18 08:13:03;;;;;;;202.65;192.90;;;33.10;58.00;;;;;;5031800;28;20187;-77
2022/06/18 08:15:30;;;;;;;202.70;192.07;;;33.40;56.50;;;;;;5036420;28;20679;-76
2022/06/18 08:17:57;;;;;;;195.73;186.07;;;33.20;57.10;;;;;;5032337;28;20270;-77
2022/06/18 08:20:23;;;;;;;193.38;183.63;;;33.40;56.40;;;;;;5026174;28;20214;-77
2022/06/18 08:22:50;;;;;;;257.40;244.27;;;33.70;56.70;;;;;;5012445;28;20755;-77
2022/06/18 08:25:18;;;;;;;235.23;223.75;;;34.00;54.30;;;;;;5016896;28;20250;-77
2022/06/18 08:27:45;;;;;;;258.08;245.27;;;34.20;54.60;;;;;;5010897;28;20179;-77
2022/06/18 08:30:12;;;;;;;267.75;254.05;;;34.30;55.20;;;;;;5014028;28;20184;-77
2022/06/18 08:32:38;;;;;;;234.95;223.35;;;34.40;52.90;;;;;;5031604;28;20179;-77
2022/06/18 08:35:05;;;;;;;271.85;258.10;;;34.20;52.30;;;;;;5033116;28;20202;-77
2022/06/18 08:37:33;;;;;;;240.50;228.75;;;33.80;53.80;;;;;;5039777;28;20182;-77
2022/06/18 08:39:59;;;;;;;248.88;236.65;;;34.00;52.90;;;;;;5034601;28;20547;-77
2022/06/18 08:42:28;;;;;;;280.58;265.90;;;33.70;52.50;;;;;;5011759;28;20195;-79
2022/06/18 08:45:19;;;;;;;200.15;190.30;;;33.40;54.90;;;;;;5015353;28;20282;-82
2022/06/18 08:48:07;;;;;;;272.65;258.92;;;33.80;56.80;;;;;;5016916;28;20180;-83
2022/06/18 08:50:46;;;;;;;230.27;218.98;;;34.10;53.60;;;;;;5031516;28;20647;-78
2022/06/18 08:53:15;;;;;;;219.07;208.50;;;33.40;53.50;;;;;;5031820;28;20225;-78
2022/06/18 08:55:43;;;;;;;203.10;193.23;;;33.20;53.60;;;;;;5029546;28;20207;-77
2022/06/18 08:58:18;;;;;;;209.90;199.77;;;33.70;53.30;;;;;;5034758;28;20289;-77
2022/06/18 09:01:08;;;;;;;234.73;222.70;;;33.70;54.50;;;;;;5027654;28;20246;-77
2022/06/18 09:04:16;;;;;;;242.50;230.55;;;34.00;52.70;;;;;;5013517;28;20195;-79
2022/06/18 09:07:01;;;;;;;199.35;189.73;;;34.00;52.10;;;;;;5012998;28;20222;-80
2022/06/18 09:09:45;;;;;;;266.58;253.15;;;34.00;52.10;;;;;;5012867;28;20652;-77
2022/06/18 09:12:17;;;;;;;257.67;244.32;;;34.40;52.00;;;;;;5032439;28;20179;-77
2022/06/18 09:14:57;;;;;;;256.98;243.30;;;34.30;52.30;;;;;;5034368;28;20207;-78
2022/06/18 09:17:31;;;;;;;277.58;262.38;;;34.20;52.40;;;;;;5030090;28;20194;-80
2022/06/18 09:20:11;;;;;;;284.77;269.90;;;34.40;52.30;;;;;;5030620;28;20317;-79
2022/06/18 09:22:51;;;;;;;336.38;318.45;;;34.70;52.60;;;;;;5015997;28;20190;-79
2022/06/18 09:25:19;;;;;;;293.00;277.00;;;35.00;52.30;;;;;;5014020;28;20215;-78
2022/06/18 09:27:59;;;;;;;348.60;329.55;;;35.60;50.60;;;;;;5019099;28;20725;-78
2022/06/18 09:30:40;;;;;;;112.65;107.05;;;35.70;50.90;;;;;;5034429;28;20183;-77
2022/06/18 09:33:17;;;;;;;38.75;36.58;;;36.00;46.10;;;;;;5033475;28;20179;-77
2022/06/18 09:35:58;;;;;;;27.00;25.55;;;36.10;44.20;;;;;;5032071;28;20198;-76
2022/06/18 09:38:39;;;;;;;33.28;31.70;;;35.80;44.00;;;;;;5033904;28;20568;-75
2022/06/18 09:41:23;;;;;;;33.40;31.70;;;35.90;42.80;;;;;;5034201;28;20205;-77
2022/06/18 09:43:54;;;;;;;39.00;37.13;;;35.70;43.60;;;;;;5034189;28;20193;-77
2022/06/18 09:46:37;;;;;;;34.92;33.17;;;35.50;43.90;;;;;;5032651;28;20206;-77
2022/06/18 09:49:03;;;;;;;28.42;26.95;;;35.80;44.60;;;;;;5031223;28;20183;-77
2022/06/18 09:51:53;;;;;;;37.63;35.10;;;36.50;42.00;;;;;;5021971;28;20179;-77
2022/06/18 09:54:21;;;;;;;14.10;13.05;;;37.00;43.20;;;;;;5012037;28;20211;-76
2022/06/18 09:56:58;;;;;;;10.00;9.43;;;37.40;42.60;;;;;;5022223;28;20187;-73
2022/06/18 09:59:29;;;;;;;4.07;3.97;;;37.30;43.80;;;;;;5019707;28;20309;-75
2022/06/18 10:01:56;;;;;;;7.28;6.88;;;36.90;42.80;;;;;;5026827;28;20183;-77
2022/06/18 10:07:22;;;;;;;10.07;9.27;;;36.80;43.10;;;;;;5034173;28;20237;-75
2022/06/18 10:10:13;;;;;;;9.00;8.30;;;37.40;42.20;;;;;;5034695;28;20218;-76
2022/06/18 10:12:53;;;;;;;9.27;8.52;;;37.40;42.10;;;;;;5033777;28;20274;-77
2022/06/18 10:15:21;;;;;;;10.00;9.20;;;37.10;42.60;;;;;;5033928;28;20578;-76
2022/06/18 10:17:52;;;;;;;5.28;5.00;;;36.90;43.60;;;;;;5031762;28;20241;-76
2022/06/18 10:20:26;;;;;;;7.10;6.75;;;37.40;41.00;;;;;;5031883;28;20186;-77
2022/06/18 10:23:13;;;;;;;5.85;5.55;;;37.60;41.50;;;;;;5013595;28;20198;-76
2022/06/18 10:25:50;;;;;;;5.57;5.20;;;37.60;39.80;;;;;;5012024;28;20212;-74
2022/06/18 10:28:26;;;;;;;4.50;4.00;;;38.00;40.20;;;;;;5013355;28;20183;-77
2022/06/18 10:31:18;;;;;;;3.42;3.22;;;38.10;37.80;;;;;;5016376;28;20171;-79
2022/06/18 10:34:00;;;;;;;4.18;4.07;;;38.00;37.50;;;;;;5031674;28;20175;-77
2022/06/18 10:36:39;;;;;;;3.53;3.42;;;38.00;36.30;;;;;;5033989;28;20183;-78
2022/06/18 10:39:13;;;;;;;4.50;4.10;;;37.70;35.90;;;;;;5033919;28;20183;-77
2022/06/18 10:41:51;;;;;;;8.48;7.88;;;37.90;35.60;;;;;;5022860;28;20194;-75
2022/06/18 10:44:27;;;;;;;5.60;5.30;;;38.60;38.40;;;;;;5035010;23;20794;-76
2022/06/18 10:47:03;;;;;;;4.15;3.85;;;39.30;36.50;;;;;;5031530;28;20263;-83
2022/06/18 10:49:31;;;;;;;3.70;3.50;;;39.40;36.50;;;;;;5023676;28;20190;-84
2022/06/18 10:51:58;;;;;;;3.70;3.60;;;39.80;37.20;;;;;;5020792;28;20180;-77
2022/06/18 10:54:35;;;;;;;2.97;2.88;;;39.80;34.40;;;;;;5023470;28;20199;-81
2022/06/18 10:57:03;;;;;;;3.30;3.10;;;39.90;36.80;;;;;;5019183;28;20184;-83
2022/06/18 10:59:39;;;;;;;2.80;2.70;;;39.90;33.70;;;;;;5025739;28;20182;-78
2022/06/18 11:02:09;;;;;;;3.22;2.83;;;39.70;31.20;;;;;;5030078;28;20234;-83
2022/06/18 11:04:35;;;;;;;2.70;2.60;;;39.40;31.80;;;;;;5029382;28;20263;-82
2022/06/18 11:07:08;;;;;;;3.53;3.42;;;39.50;34.20;;;;;;5033832;28;20163;-78
2022/06/18 11:09:38;;;;;;;2.97;2.80;;;39.60;33.70;;;;;;5032126;28;20184;-80
2022/06/18 11:12:19;;;;;;;3.28;2.97;;;39.60;32.60;;;;;;5023116;28;20183;-82
2022/06/18 11:14:44;;;;;;;3.03;2.80;;;39.50;32.00;;;;;;5025783;28;20294;-79
2022/06/18 11:17:31;;;;;;;2.72;2.63;;;39.30;32.70;;;;;;5027743;28;20194;-82
2022/06/18 11:20:19;;;;;;;3.63;3.28;;;39.40;33.50;;;;;;5022943;28;20188;-78
2022/06/18 11:23:00;;;;;;;2.65;2.55;;;40.50;32.00;;;;;;5021650;28;20190;-82
2022/06/18 11:25:38;;;;;;;3.00;2.80;;;40.50;30.00;;;;;;5023011;28;20238;-83
2022/06/18 11:28:13;;;;;;;2.78;2.58;;;40.80;30.20;;;;;;5026633;28;20245;-81
2022/06/18 11:30:45;;;;;;;2.88;2.67;;;40.80;29.40;;;;;;5025138;28;20194;-78
2022/06/18 11:33:36;;;;;;;2.65;2.45;;;41.60;29.50;;;;;;5021733;28;20183;-78
2022/06/18 11:36:15;;;;;;;3.08;2.88;;;41.10;30.50;;;;;;5023142;28;20306;-82
2022/06/18 11:38:52;;;;;;;2.67;2.40;;;41.40;31.10;;;;;;5022571;28;20180;-79
2022/06/18 11:41:33;;;;;;;2.83;2.30;;;41.60;31.10;;;;;;5019461;28;20203;-79
2022/06/18 11:44:15;;;;;;;2.70;2.60;;;41.60;31.20;;;;;;5022351;28;20184;-80
2022/06/18 11:46:50;;;;;;;3.60;3.00;;;41.50;31.10;;;;;;5024072;28;20203;-80
2022/06/18 11:49:51;;;;;;;3.70;3.47;;;41.50;30.10;;;;;;5023332;28;20614;-77
2022/06/18 11:52:31;;;;;;;3.25;2.88;;;41.50;31.10;;;;;;5013413;28;20195;-79
2022/06/18 11:55:02;;;;;;;5.05;2.90;;;41.60;31.60;;;;;;5022408;28;20215;-83
2022/06/18 11:57:38;;;;;;;4.82;2.33;;;41.30;30.20;;;;;;5021576;28;20553;-79
2022/06/18 12:00:21;;;;;;;4.15;3.05;;;41.60;32.30;;;;;;5017978;28;20315;-79
2022/06/18 12:02:53;;;;;;;3.97;2.80;;;42.40;31.90;;;;;;5016665;28;20180;-77
2022/06/18 12:05:44;;;;;;;2.90;2.70;;;42.70;33.00;;;;;;5018183;28;20294;-82
2022/06/18 12:08:16;;;;;;;4.20;2.83;;;42.70;31.10;;;;;;5016240;28;20225;-79
2022/06/18 12:11:23;;;;;;;4.40;4.03;;;42.60;30.70;;;;;;5016369;28;20188;-75
2022/06/18 12:13:54;;;;;;;7.78;3.92;;;43.10;30.60;;;;;;4985243;28;20204;-80
2022/06/18 12:16:37;;;;;;;8.60;4.53;;;42.60;30.80;;;;;;5006878;28;20247;-80
2022/06/18 12:19:10;;;;;;;11.80;9.88;;;43.10;31.80;;;;;;5005047;28;20215;-82
2022/06/18 12:22:05;;;;;;;10.38;6.88;;;43.10;29.50;;;;;;5013407;28;20208;-78
2022/06/18 12:24:40;;;;;;;6.05;4.85;;;43.20;30.80;;;;;;5018353;28;20672;-83
2022/06/18 12:27:26;;;;;;;8.55;3.95;;;43.00;31.80;;;;;;5020797;28;20310;-81
2022/06/18 12:30:04;;;;;;;9.80;8.85;;;42.40;31.40;;;;;;5021395;28;20401;-84
2022/06/18 12:32:58;;;;;;;7.00;3.72;;;42.40;30.00;;;;;;5020659;28;20274;-83
2022/06/18 12:35:33;;;;;;;10.82;5.38;;;42.50;31.20;;;;;;5020743;28;20584;-81
2022/06/18 12:38:04;;;;;;;6.97;4.78;;;43.20;29.80;;;;;;5021553;28;20183;-83
2022/06/18 12:41:01;;;;;;;7.50;5.80;;;43.20;31.50;;;;;;5019759;28;20183;-82
2022/06/18 12:43:39;;;;;;;8.20;5.10;;;42.50;31.20;;;;;;5000848;28;20199;-83
2022/06/18 12:46:16;;;;;;;11.48;5.43;;;42.50;31.10;;;;;;5001387;28;20227;-82
2022/06/18 12:48:42;;;;;;;11.57;10.48;;;43.20;30.30;;;;;;5002106;28;20188;-83
2022/06/18 12:51:19;;;;;;;13.50;7.65;;;43.60;30.00;;;;;;5015593;28;20179;-81
2022/06/18 12:53:55;;;;;;;22.13;20.63;;;43.60;31.80;;;;;;5035642;28;20191;-82
2022/06/18 12:56:34;;;;;;;17.60;16.13;;;43.70;29.40;;;;;;5033055;28;20651;-77
2022/06/18 12:59:22;;;;;;;21.25;19.65;;;43.60;30.70;;;;;;5028039;28;20210;-81
2022/06/18 13:02:18;;;;;;;13.45;7.57;;;43.20;30.60;;;;;;5034545;28;20192;-82
2022/06/18 13:05:02;;;;;;;14.93;13.65;;;43.20;32.70;;;;;;5029594;28;20294;-80
2022/06/18 13:07:39;;;;;;;18.20;16.88;;;43.90;30.40;;;;;;5016824;28;20180;-80